sensor_id;sensor_type;location;lat;lon;timestamp;temperature;humidity
76567;DHT22;65428;53.194;6.132;2024-03-07T00:00:57;3.20;99.90
76567;DHT22;65428;53.194;6.132;2024-03-07T00:03:25;3.20;99.90
76567;DHT22;65428;53.194;6.132;2024-03-07T00:05:51;3.10;99.90
76567;DHT22;65428;53.194;6.132;2024-03-07T00:08:17;3.00;99.90
76567;DHT22;65428;53.194;6.132;2024-03-07T00:10:43;3.30;99.90
76567;DHT22;65428;53.194;6.132;2024-03-07T00:13:10;3.20;99.90
76567;DHT22;65428;53.194;6.132;2024-03-07T00:15:35;3.10;99.90
76567;DHT22;65428;53.194;6.132;2024-03-07T00:18:02;3.20;99.90
76567;DHT22;65428;53.194;6.132;2024-03-07T00:20:28;2.90;99.90
76567;DHT22;65428;53.194;6.132;2024-03-07T00:22:54;2.90;99.90
76567;DHT22;65428;53.194;6.132;2024-03-07T00:25:20;3.10;99.90
76567;DHT22;65428;53.194;6.132;2024-03-07T00:27:45;3.10;99.90
76567;DHT22;65428;53.194;6.132;2024-03-07T00:30:11;2.90;99.90
76567;DHT22;65428;53.194;6.132;2024-03-07T00:32:39;2.80;99.90
76567;DHT22;65428;53.194;6.132;2024-03-07T00:35:08;3.00;99.90
76567;DHT22;65428;53.194;6.132;2024-03-07T00:37:34;2.90;99.90
76567;DHT22;65428;53.194;6.132;2024-03-07T00:40:00;2.80;99.90
76567;DHT22;65428;53.194;6.132;2024-03-07T00:42:26;3.00;99.90
76567;DHT22;65428;53.194;6.132;2024-03-07T00:44:53;2.90;99.90
76567;DHT22;65428;53.194;6.132;2024-03-07T00:47:18;2.80;99.90
76567;DHT22;65428;53.194;6.132;2024-03-07T00:49:45;2.90;99.90
76567;DHT22;65428;53.194;6.132;2024-03-07T00:52:14;2.80;99.90
76567;DHT22;65428;53.194;6.132;2024-03-07T00:54:39;2.70;99.90
76567;DHT22;65428;53.194;6.132;2024-03-07T00:57:05;2.90;99.90
76567;DHT22;65428;53.194;6.132;2024-03-07T00:59:33;3.10;99.90
76567;DHT22;65428;53.194;6.132;2024-03-07T01:01:59;2.70;99.90
76567;DHT22;65428;53.194;6.132;2024-03-07T01:04:25;2.70;99.90
76567;DHT22;65428;53.194;6.132;2024-03-07T01:06:59;2.60;99.90
76567;DHT22;65428;53.194;6.132;2024-03-07T01:09:26;2.60;99.90
76567;DHT22;65428;53.194;6.132;2024-03-07T01:11:53;2.60;99.90
76567;DHT22;65428;53.194;6.132;2024-03-07T01:14:20;2.50;99.90
76567;DHT22;65428;53.194;6.132;2024-03-07T01:16:46;2.90;99.90
76567;DHT22;65428;53.194;6.132;2024-03-07T01:19:12;2.50;99.90
76567;DHT22;65428;53.194;6.132;2024-03-07T01:21:38;2.60;99.90
76567;DHT22;65428;53.194;6.132;2024-03-07T01:24:05;2.60;99.90
76567;DHT22;65428;53.194;6.132;2024-03-07T01:26:31;2.40;99.90
76567;DHT22;65428;53.194;6.132;2024-03-07T01:28:59;2.50;99.90
76567;DHT22;65428;53.194;6.132;2024-03-07T01:31:25;2.40;99.90
76567;DHT22;65428;53.194;6.132;2024-03-07T01:33:51;2.40;99.90
76567;DHT22;65428;53.194;6.132;2024-03-07T01:36:18;2.70;99.90
76567;DHT22;65428;53.194;6.132;2024-03-07T01:38:44;2.50;99.90
76567;DHT22;65428;53.194;6.132;2024-03-07T01:41:09;2.30;99.90
76567;DHT22;65428;53.194;6.132;2024-03-07T01:43:35;2.50;99.90
76567;DHT22;65428;53.194;6.132;2024-03-07T01:46:01;2.20;99.90
76567;DHT22;65428;53.194;6.132;2024-03-07T01:48:27;2.30;99.90
76567;DHT22;65428;53.194;6.132;2024-03-07T01:50:58;2.30;99.90
76567;DHT22;65428;53.194;6.132;2024-03-07T01:53:26;2.20;99.90
76567;DHT22;65428;53.194;6.132;2024-03-07T01:55:52;2.10;99.90
76567;DHT22;65428;53.194;6.132;2024-03-07T01:58:20;2.20;99.90
76567;DHT22;65428;53.194;6.132;2024-03-07T02:00:46;2.30;99.90
76567;DHT22;65428;53.194;6.132;2024-03-07T02:03:16;2.00;99.90
76567;DHT22;65428;53.194;6.132;2024-03-07T02:05:42;2.10;99.90
76567;DHT22;65428;53.194;6.132;2024-03-07T02:08:07;2.10;99.90
76567;DHT22;65428;53.194;6.132;2024-03-07T02:10:33;2.10;99.90
76567;DHT22;65428;53.194;6.132;2024-03-07T02:12:59;2.20;99.90
76567;DHT22;65428;53.194;6.132;2024-03-07T02:15:27;2.00;99.90
76567;DHT22;65428;53.194;6.132;2024-03-07T02:17:53;2.10;99.90
76567;DHT22;65428;53.194;6.132;2024-03-07T02:20:19;2.10;99.90
76567;DHT22;65428;53.194;6.132;2024-03-07T02:22:44;2.00;99.90
76567;DHT22;65428;53.194;6.132;2024-03-07T02:25:11;2.10;99.90
76567;DHT22;65428;53.194;6.132;2024-03-07T02:27:37;1.90;99.90
76567;DHT22;65428;53.194;6.132;2024-03-07T02:30:03;1.90;99.90
76567;DHT22;65428;53.194;6.132;2024-03-07T02:32:31;1.80;99.90
76567;DHT22;65428;53.194;6.132;2024-03-07T02:34:58;1.80;99.90
76567;DHT22;65428;53.194;6.132;2024-03-07T02:37:23;1.90;99.90
76567;DHT22;65428;53.194;6.132;2024-03-07T02:39:49;1.70;99.90
76567;DHT22;65428;53.194;6.132;2024-03-07T02:42:15;1.80;99.90
76567;DHT22;65428;53.194;6.132;2024-03-07T02:44:40;1.70;99.90
76567;DHT22;65428;53.194;6.132;2024-03-07T02:47:07;1.80;99.90
76567;DHT22;65428;53.194;6.132;2024-03-07T02:49:33;1.60;99.90
76567;DHT22;65428;53.194;6.132;2024-03-07T02:51:59;1.70;99.90
76567;DHT22;65428;53.194;6.132;2024-03-07T02:54:24;1.80;99.90
76567;DHT22;65428;53.194;6.132;2024-03-07T02:56:50;1.80;99.90
76567;DHT22;65428;53.194;6.132;2024-03-07T02:59:16;1.70;99.90
76567;DHT22;65428;53.194;6.132;2024-03-07T03:01:47;1.70;99.90
76567;DHT22;65428;53.194;6.132;2024-03-07T03:04:14;1.60;99.90
76567;DHT22;65428;53.194;6.132;2024-03-07T03:06:39;1.70;99.90
76567;DHT22;65428;53.194;6.132;2024-03-07T03:09:05;1.60;99.90
76567;DHT22;65428;53.194;6.132;2024-03-07T03:11:31;1.50;99.90
76567;DHT22;65428;53.194;6.132;2024-03-07T03:13:57;1.70;99.90
76567;DHT22;65428;53.194;6.132;2024-03-07T03:16:22;1.50;99.90
76567;DHT22;65428;53.194;6.132;2024-03-07T03:18:48;1.70;99.90
76567;DHT22;65428;53.194;6.132;2024-03-07T03:21:14;1.60;99.90
76567;DHT22;65428;53.194;6.132;2024-03-07T03:23:41;1.40;99.90
76567;DHT22;65428;53.194;6.132;2024-03-07T03:26:06;1.50;99.90
76567;DHT22;65428;53.194;6.132;2024-03-07T03:28:32;1.60;99.90
76567;DHT22;65428;53.194;6.132;2024-03-07T03:30:58;1.60;99.90
76567;DHT22;65428;53.194;6.132;2024-03-07T03:33:23;1.40;99.90
76567;DHT22;65428;53.194;6.132;2024-03-07T03:35:49;1.40;99.90
76567;DHT22;65428;53.194;6.132;2024-03-07T03:38:15;1.40;99.90
76567;DHT22;65428;53.194;6.132;2024-03-07T03:40:41;1.70;99.90
76567;DHT22;65428;53.194;6.132;2024-03-07T03:43:07;1.50;99.90
76567;DHT22;65428;53.194;6.132;2024-03-07T03:45:33;1.30;99.90
76567;DHT22;65428;53.194;6.132;2024-03-07T03:47:59;1.30;99.90
76567;DHT22;65428;53.194;6.132;2024-03-07T03:50:25;1.40;99.90
76567;DHT22;65428;53.194;6.132;2024-03-07T03:52:51;1.20;99.90
76567;DHT22;65428;53.194;6.132;2024-03-07T03:55:17;1.40;99.90
76567;DHT22;65428;53.194;6.132;2024-03-07T03:57:44;1.30;99.90
76567;DHT22;65428;53.194;6.132;2024-03-07T04:00:10;1.40;99.90
76567;DHT22;65428;53.194;6.132;2024-03-07T04:05:05;1.20;99.90
76567;DHT22;65428;53.194;6.132;2024-03-07T04:07:31;1.10;99.90
76567;DHT22;65428;53.194;6.132;2024-03-07T04:09:57;1.20;99.90
76567;DHT22;65428;53.194;6.132;2024-03-07T04:12:26;1.30;99.90
76567;DHT22;65428;53.194;6.132;2024-03-07T04:14:53;1.20;99.90
76567;DHT22;65428;53.194;6.132;2024-03-07T04:17:22;1.20;99.90
76567;DHT22;65428;53.194;6.132;2024-03-07T04:19:48;1.50;99.90
76567;DHT22;65428;53.194;6.132;2024-03-07T04:22:14;1.20;99.90
76567;DHT22;65428;53.194;6.132;2024-03-07T04:24:40;1.30;99.90
76567;DHT22;65428;53.194;6.132;2024-03-07T04:27:06;1.20;99.90
76567;DHT22;65428;53.194;6.132;2024-03-07T04:29:35;1.30;99.90
76567;DHT22;65428;53.194;6.132;2024-03-07T04:32:02;1.30;99.90
76567;DHT22;65428;53.194;6.132;2024-03-07T04:34:31;1.10;99.90
76567;DHT22;65428;53.194;6.132;2024-03-07T04:36:57;1.20;99.90
76567;DHT22;65428;53.194;6.132;2024-03-07T04:39:25;1.50;99.90
76567;DHT22;65428;53.194;6.132;2024-03-07T04:42:01;1.20;99.90
76567;DHT22;65428;53.194;6.132;2024-03-07T04:44:31;1.00;99.90
76567;DHT22;65428;53.194;6.132;2024-03-07T04:46:58;1.00;99.90
76567;DHT22;65428;53.194;6.132;2024-03-07T04:49:25;0.90;99.90
76567;DHT22;65428;53.194;6.132;2024-03-07T04:51:52;1.30;99.90
76567;DHT22;65428;53.194;6.132;2024-03-07T04:54:19;1.10;99.90
76567;DHT22;65428;53.194;6.132;2024-03-07T04:56:45;1.30;99.90
76567;DHT22;65428;53.194;6.132;2024-03-07T04:59:12;0.80;99.90
76567;DHT22;65428;53.194;6.132;2024-03-07T05:01:41;1.00;99.90
76567;DHT22;65428;53.194;6.132;2024-03-07T05:04:07;0.90;99.90
76567;DHT22;65428;53.194;6.132;2024-03-07T05:06:33;0.90;99.90
76567;DHT22;65428;53.194;6.132;2024-03-07T05:09:02;0.80;99.90
76567;DHT22;65428;53.194;6.132;2024-03-07T05:11:33;0.90;99.90
76567;DHT22;65428;53.194;6.132;2024-03-07T05:14:00;0.90;99.90
76567;DHT22;65428;53.194;6.132;2024-03-07T05:16:26;0.90;99.90
76567;DHT22;65428;53.194;6.132;2024-03-07T05:18:52;1.10;99.90
76567;DHT22;65428;53.194;6.132;2024-03-07T05:21:21;1.00;99.90
76567;DHT22;65428;53.194;6.132;2024-03-07T05:24:01;0.90;99.90
76567;DHT22;65428;53.194;6.132;2024-03-07T05:26:28;0.80;99.90
76567;DHT22;65428;53.194;6.132;2024-03-07T05:29:06;1.20;99.90
76567;DHT22;65428;53.194;6.132;2024-03-07T05:31:37;0.90;99.90
76567;DHT22;65428;53.194;6.132;2024-03-07T05:34:04;0.80;99.90
76567;DHT22;65428;53.194;6.132;2024-03-07T05:36:34;1.10;99.90
76567;DHT22;65428;53.194;6.132;2024-03-07T05:39:00;0.80;99.90
76567;DHT22;65428;53.194;6.132;2024-03-07T05:41:28;0.80;99.90
76567;DHT22;65428;53.194;6.132;2024-03-07T05:43:55;0.90;99.90
76567;DHT22;65428;53.194;6.132;2024-03-07T05:46:24;0.80;99.90
76567;DHT22;65428;53.194;6.132;2024-03-07T05:48:50;1.10;99.90
76567;DHT22;65428;53.194;6.132;2024-03-07T05:51:18;0.90;99.90
76567;DHT22;65428;53.194;6.132;2024-03-07T05:53:44;0.80;99.90
76567;DHT22;65428;53.194;6.132;2024-03-07T05:56:09;0.90;99.90
76567;DHT22;65428;53.194;6.132;2024-03-07T05:58:35;0.80;99.90
76567;DHT22;65428;53.194;6.132;2024-03-07T06:01:01;0.90;99.90
76567;DHT22;65428;53.194;6.132;2024-03-07T06:03:26;0.90;99.90
76567;DHT22;65428;53.194;6.132;2024-03-07T06:05:52;0.90;99.90
76567;DHT22;65428;53.194;6.132;2024-03-07T06:08:19;0.70;99.90
76567;DHT22;65428;53.194;6.132;2024-03-07T06:10:45;0.70;99.90
76567;DHT22;65428;53.194;6.132;2024-03-07T06:13:13;0.70;99.90
76567;DHT22;65428;53.194;6.132;2024-03-07T06:15:40;0.70;99.90
76567;DHT22;65428;53.194;6.132;2024-03-07T06:18:06;0.70;99.90
76567;DHT22;65428;53.194;6.132;2024-03-07T06:20:34;1.00;99.90
76567;DHT22;65428;53.194;6.132;2024-03-07T06:23:00;0.70;99.90
76567;DHT22;65428;53.194;6.132;2024-03-07T06:25:29;0.80;99.90
76567;DHT22;65428;53.194;6.132;2024-03-07T06:28:16;0.90;99.90
76567;DHT22;65428;53.194;6.132;2024-03-07T06:30:44;0.90;99.90
76567;DHT22;65428;53.194;6.132;2024-03-07T06:33:13;0.80;99.90
76567;DHT22;65428;53.194;6.132;2024-03-07T06:35:42;0.90;99.90
76567;DHT22;65428;53.194;6.132;2024-03-07T06:38:09;0.90;99.90
76567;DHT22;65428;53.194;6.132;2024-03-07T06:40:36;0.90;99.90
76567;DHT22;65428;53.194;6.132;2024-03-07T06:43:02;0.80;99.90
76567;DHT22;65428;53.194;6.132;2024-03-07T06:45:34;0.80;99.90
76567;DHT22;65428;53.194;6.132;2024-03-07T06:48:00;0.80;99.90
76567;DHT22;65428;53.194;6.132;2024-03-07T06:50:26;1.10;99.90
76567;DHT22;65428;53.194;6.132;2024-03-07T06:52:54;1.10;99.90
76567;DHT22;65428;53.194;6.132;2024-03-07T06:55:21;1.10;99.90
76567;DHT22;65428;53.194;6.132;2024-03-07T06:57:47;1.00;99.90
76567;DHT22;65428;53.194;6.132;2024-03-07T07:00:14;1.20;99.90
76567;DHT22;65428;53.194;6.132;2024-03-07T07:02:49;1.10;99.90
76567;DHT22;65428;53.194;6.132;2024-03-07T07:05:16;1.40;99.90
76567;DHT22;65428;53.194;6.132;2024-03-07T07:07:44;1.20;99.90
76567;DHT22;65428;53.194;6.132;2024-03-07T07:10:11;1.30;99.90
76567;DHT22;65428;53.194;6.132;2024-03-07T07:12:49;1.50;99.90
76567;DHT22;65428;53.194;6.132;2024-03-07T07:15:16;1.40;99.90
76567;DHT22;65428;53.194;6.132;2024-03-07T07:17:44;1.40;99.90
76567;DHT22;65428;53.194;6.132;2024-03-07T07:20:17;1.60;99.90
76567;DHT22;65428;53.194;6.132;2024-03-07T07:22:47;1.50;99.90
76567;DHT22;65428;53.194;6.132;2024-03-07T07:25:14;1.60;99.90
76567;DHT22;65428;53.194;6.132;2024-03-07T07:27:48;1.90;99.90
76567;DHT22;65428;53.194;6.132;2024-03-07T07:30:15;1.70;99.90
76567;DHT22;65428;53.194;6.132;2024-03-07T07:32:42;1.70;99.90
76567;DHT22;65428;53.194;6.132;2024-03-07T07:35:09;2.30;99.90
76567;DHT22;65428;53.194;6.132;2024-03-07T07:37:40;2.00;99.90
76567;DHT22;65428;53.194;6.132;2024-03-07T07:40:11;2.00;99.90
76567;DHT22;65428;53.194;6.132;2024-03-07T07:42:40;1.90;99.90
76567;DHT22;65428;53.194;6.132;2024-03-07T07:45:11;1.90;99.90
76567;DHT22;65428;53.194;6.132;2024-03-07T07:47:41;2.00;99.90
76567;DHT22;65428;53.194;6.132;2024-03-07T07:50:13;2.20;99.90
76567;DHT22;65428;53.194;6.132;2024-03-07T07:55:14;2.20;99.90
76567;DHT22;65428;53.194;6.132;2024-03-07T07:57:49;2.10;99.90
76567;DHT22;65428;53.194;6.132;2024-03-07T08:00:18;2.30;99.90
76567;DHT22;65428;53.194;6.132;2024-03-07T08:03:02;2.40;99.90
76567;DHT22;65428;53.194;6.132;2024-03-07T08:05:29;2.00;99.90
76567;DHT22;65428;53.194;6.132;2024-03-07T08:07:57;2.30;99.90
76567;DHT22;65428;53.194;6.132;2024-03-07T08:10:30;2.30;99.90
76567;DHT22;65428;53.194;6.132;2024-03-07T08:13:00;2.20;99.90
76567;DHT22;65428;53.194;6.132;2024-03-07T08:15:27;2.50;99.90
76567;DHT22;65428;53.194;6.132;2024-03-07T08:17:54;2.50;99.90
76567;DHT22;65428;53.194;6.132;2024-03-07T08:20:25;2.70;99.90
76567;DHT22;65428;53.194;6.132;2024-03-07T08:22:54;2.60;99.90
76567;DHT22;65428;53.194;6.132;2024-03-07T08:25:22;2.70;99.90
76567;DHT22;65428;53.194;6.132;2024-03-07T08:27:52;2.80;99.90
76567;DHT22;65428;53.194;6.132;2024-03-07T08:30:18;2.90;99.90
76567;DHT22;65428;53.194;6.132;2024-03-07T08:32:50;2.70;99.90
76567;DHT22;65428;53.194;6.132;2024-03-07T08:35:17;2.70;99.90
76567;DHT22;65428;53.194;6.132;2024-03-07T08:37:45;3.10;99.90
76567;DHT22;65428;53.194;6.132;2024-03-07T08:40:12;2.70;99.90
76567;DHT22;65428;53.194;6.132;2024-03-07T08:42:49;2.80;99.90
76567;DHT22;65428;53.194;6.132;2024-03-07T08:45:18;3.00;99.90
76567;DHT22;65428;53.194;6.132;2024-03-07T08:47:46;2.90;99.90
76567;DHT22;65428;53.194;6.132;2024-03-07T08:50:12;3.00;99.90
76567;DHT22;65428;53.194;6.132;2024-03-07T08:52:39;2.90;99.90
76567;DHT22;65428;53.194;6.132;2024-03-07T08:55:06;2.90;99.90
76567;DHT22;65428;53.194;6.132;2024-03-07T08:57:35;2.90;99.90
76567;DHT22;65428;53.194;6.132;2024-03-07T09:00:03;3.20;99.90
76567;DHT22;65428;53.194;6.132;2024-03-07T09:02:38;3.10;99.90
76567;DHT22;65428;53.194;6.132;2024-03-07T09:05:05;3.40;99.90
76567;DHT22;65428;53.194;6.132;2024-03-07T09:07:32;3.20;99.90
76567;DHT22;65428;53.194;6.132;2024-03-07T09:09:58;3.40;99.90
76567;DHT22;65428;53.194;6.132;2024-03-07T09:12:24;3.50;99.90
76567;DHT22;65428;53.194;6.132;2024-03-07T09:14:53;3.70;99.90
76567;DHT22;65428;53.194;6.132;2024-03-07T09:17:20;3.20;99.90
76567;DHT22;65428;53.194;6.132;2024-03-07T09:19:46;3.40;99.90
76567;DHT22;65428;53.194;6.132;2024-03-07T09:22:11;3.60;99.90
76567;DHT22;65428;53.194;6.132;2024-03-07T09:24:37;3.60;99.90
76567;DHT22;65428;53.194;6.132;2024-03-07T09:27:03;3.60;99.90
76567;DHT22;65428;53.194;6.132;2024-03-07T09:29:30;3.60;99.90
76567;DHT22;65428;53.194;6.132;2024-03-07T09:31:56;3.60;99.90
76567;DHT22;65428;53.194;6.132;2024-03-07T09:34:24;3.90;99.90
76567;DHT22;65428;53.194;6.132;2024-03-07T09:36:50;3.80;99.90
76567;DHT22;65428;53.194;6.132;2024-03-07T09:39:17;3.80;99.90
76567;DHT22;65428;53.194;6.132;2024-03-07T09:41:44;4.00;99.90
76567;DHT22;65428;53.194;6.132;2024-03-07T09:44:10;3.90;99.90
76567;DHT22;65428;53.194;6.132;2024-03-07T09:46:38;4.00;99.90
76567;DHT22;65428;53.194;6.132;2024-03-07T09:49:04;4.00;99.90
76567;DHT22;65428;53.194;6.132;2024-03-07T09:51:31;3.90;99.90
76567;DHT22;65428;53.194;6.132;2024-03-07T09:53:58;4.00;99.90
76567;DHT22;65428;53.194;6.132;2024-03-07T09:56:26;3.80;99.90
76567;DHT22;65428;53.194;6.132;2024-03-07T09:58:55;3.90;99.90
76567;DHT22;65428;53.194;6.132;2024-03-07T10:01:25;4.00;99.90
76567;DHT22;65428;53.194;6.132;2024-03-07T10:04:00;4.20;99.90
76567;DHT22;65428;53.194;6.132;2024-03-07T10:06:43;4.00;99.90
76567;DHT22;65428;53.194;6.132;2024-03-07T10:09:13;4.20;99.90
76567;DHT22;65428;53.194;6.132;2024-03-07T10:11:43;4.20;99.90
76567;DHT22;65428;53.194;6.132;2024-03-07T10:14:11;4.30;99.90
76567;DHT22;65428;53.194;6.132;2024-03-07T10:16:37;4.30;99.90
76567;DHT22;65428;53.194;6.132;2024-03-07T10:19:07;4.40;99.90
76567;DHT22;65428;53.194;6.132;2024-03-07T10:21:35;4.50;99.90
76567;DHT22;65428;53.194;6.132;2024-03-07T10:24:08;4.30;99.90
76567;DHT22;65428;53.194;6.132;2024-03-07T10:26:39;4.20;99.90
76567;DHT22;65428;53.194;6.132;2024-03-07T10:29:06;4.40;99.90
76567;DHT22;65428;53.194;6.132;2024-03-07T10:31:34;4.20;99.90
76567;DHT22;65428;53.194;6.132;2024-03-07T10:34:01;4.40;99.90
76567;DHT22;65428;53.194;6.132;2024-03-07T10:36:32;4.20;99.90
76567;DHT22;65428;53.194;6.132;2024-03-07T10:38:58;4.20;99.90
76567;DHT22;65428;53.194;6.132;2024-03-07T10:41:46;4.20;99.90
76567;DHT22;65428;53.194;6.132;2024-03-07T10:44:24;4.30;99.90
76567;DHT22;65428;53.194;6.132;2024-03-07T10:46:55;4.30;99.90
76567;DHT22;65428;53.194;6.132;2024-03-07T10:49:25;4.60;99.90
76567;DHT22;65428;53.194;6.132;2024-03-07T10:52:17;4.40;99.90
76567;DHT22;65428;53.194;6.132;2024-03-07T10:57:31;4.40;99.90
76567;DHT22;65428;53.194;6.132;2024-03-07T11:00:03;4.20;99.90
76567;DHT22;65428;53.194;6.132;2024-03-07T11:02:50;4.70;99.90
76567;DHT22;65428;53.194;6.132;2024-03-07T11:05:19;4.80;99.90
76567;DHT22;65428;53.194;6.132;2024-03-07T11:07:45;5.20;99.90
76567;DHT22;65428;53.194;6.132;2024-03-07T11:10:13;5.20;99.90
76567;DHT22;65428;53.194;6.132;2024-03-07T11:12:44;5.40;99.90
76567;DHT22;65428;53.194;6.132;2024-03-07T11:15:12;5.40;99.90
76567;DHT22;65428;53.194;6.132;2024-03-07T11:17:58;5.20;99.90
76567;DHT22;65428;53.194;6.132;2024-03-07T11:20:34;5.30;99.90
76567;DHT22;65428;53.194;6.132;2024-03-07T11:23:00;5.40;99.90
76567;DHT22;65428;53.194;6.132;2024-03-07T11:25:28;5.60;99.90
76567;DHT22;65428;53.194;6.132;2024-03-07T11:27:58;5.40;99.90
76567;DHT22;65428;53.194;6.132;2024-03-07T11:30:25;5.60;99.90
76567;DHT22;65428;53.194;6.132;2024-03-07T11:32:52;5.40;99.90
76567;DHT22;65428;53.194;6.132;2024-03-07T11:35:33;5.50;99.90
76567;DHT22;65428;53.194;6.132;2024-03-07T11:38:02;5.50;99.90
76567;DHT22;65428;53.194;6.132;2024-03-07T11:42:57;5.70;99.90
76567;DHT22;65428;53.194;6.132;2024-03-07T11:45:26;5.60;99.90
76567;DHT22;65428;53.194;6.132;2024-03-07T11:47:54;5.70;99.90
76567;DHT22;65428;53.194;6.132;2024-03-07T11:50:25;5.80;99.90
76567;DHT22;65428;53.194;6.132;2024-03-07T11:52:55;6.20;99.90
76567;DHT22;65428;53.194;6.132;2024-03-07T11:55:24;6.20;99.90
76567;DHT22;65428;53.194;6.132;2024-03-07T11:57:51;6.40;99.90
76567;DHT22;65428;53.194;6.132;2024-03-07T12:00:20;6.30;99.90
76567;DHT22;65428;53.194;6.132;2024-03-07T12:02:49;6.50;99.90
76567;DHT22;65428;53.194;6.132;2024-03-07T12:05:15;6.30;99.90
76567;DHT22;65428;53.194;6.132;2024-03-07T12:07:42;6.60;99.90
76567;DHT22;65428;53.194;6.132;2024-03-07T12:10:08;6.70;99.90
76567;DHT22;65428;53.194;6.132;2024-03-07T12:12:35;6.50;99.90
76567;DHT22;65428;53.194;6.132;2024-03-07T12:15:07;6.80;99.90
76567;DHT22;65428;53.194;6.132;2024-03-07T12:17:46;6.90;99.90
76567;DHT22;65428;53.194;6.132;2024-03-07T12:20:15;7.00;99.90
76567;DHT22;65428;53.194;6.132;2024-03-07T12:22:55;7.10;99.90
76567;DHT22;65428;53.194;6.132;2024-03-07T12:25:22;7.30;99.90
76567;DHT22;65428;53.194;6.132;2024-03-07T12:28:08;7.40;99.90
76567;DHT22;65428;53.194;6.132;2024-03-07T12:33:13;7.40;99.90
76567;DHT22;65428;53.194;6.132;2024-03-07T12:35:48;7.30;99.90
76567;DHT22;65428;53.194;6.132;2024-03-07T12:38:19;7.40;99.90
76567;DHT22;65428;53.194;6.132;2024-03-07T12:40:45;7.40;99.90
76567;DHT22;65428;53.194;6.132;2024-03-07T12:43:19;7.60;99.90
76567;DHT22;65428;53.194;6.132;2024-03-07T12:45:53;7.70;99.90
76567;DHT22;65428;53.194;6.132;2024-03-07T12:48:26;7.90;99.90
76567;DHT22;65428;53.194;6.132;2024-03-07T12:50:53;8.10;99.90
76567;DHT22;65428;53.194;6.132;2024-03-07T12:53:20;7.90;99.90
76567;DHT22;65428;53.194;6.132;2024-03-07T12:55:47;8.10;99.90
76567;DHT22;65428;53.194;6.132;2024-03-07T12:58:13;8.10;99.90
76567;DHT22;65428;53.194;6.132;2024-03-07T13:00:39;8.10;99.90
76567;DHT22;65428;53.194;6.132;2024-03-07T13:03:10;8.20;99.90
76567;DHT22;65428;53.194;6.132;2024-03-07T13:05:38;7.90;99.90
76567;DHT22;65428;53.194;6.132;2024-03-07T13:08:06;8.10;99.90
76567;DHT22;65428;53.194;6.132;2024-03-07T13:10:50;8.20;99.90
76567;DHT22;65428;53.194;6.132;2024-03-07T13:13:16;8.80;99.90
76567;DHT22;65428;53.194;6.132;2024-03-07T13:15:41;9.40;99.90
76567;DHT22;65428;53.194;6.132;2024-03-07T13:18:08;9.80;99.90
76567;DHT22;65428;53.194;6.132;2024-03-07T13:20:37;10.10;99.90
76567;DHT22;65428;53.194;6.132;2024-03-07T13:23:03;10.20;99.90
76567;DHT22;65428;53.194;6.132;2024-03-07T13:25:29;10.20;99.90
76567;DHT22;65428;53.194;6.132;2024-03-07T13:28:09;9.90;99.90
76567;DHT22;65428;53.194;6.132;2024-03-07T13:30:44;9.70;99.90
76567;DHT22;65428;53.194;6.132;2024-03-07T13:33:10;9.40;99.90
76567;DHT22;65428;53.194;6.132;2024-03-07T13:35:38;9.20;99.90
76567;DHT22;65428;53.194;6.132;2024-03-07T13:38:04;9.00;99.90
76567;DHT22;65428;53.194;6.132;2024-03-07T13:40:30;9.00;99.90
76567;DHT22;65428;53.194;6.132;2024-03-07T13:43:00;8.70;99.90
76567;DHT22;65428;53.194;6.132;2024-03-07T13:45:28;8.50;99.90
76567;DHT22;65428;53.194;6.132;2024-03-07T13:47:57;8.70;99.90
76567;DHT22;65428;53.194;6.132;2024-03-07T13:50:25;8.30;99.90
76567;DHT22;65428;53.194;6.132;2024-03-07T13:52:54;8.30;99.90
76567;DHT22;65428;53.194;6.132;2024-03-07T14:07:04;7.90;99.90
76567;DHT22;65428;53.194;6.132;2024-03-07T14:30:54;7.90;99.90
76567;DHT22;65428;53.194;6.132;2024-03-07T14:33:50;7.90;99.90
76567;DHT22;65428;53.194;6.132;2024-03-07T14:36:35;7.80;99.90
76567;DHT22;65428;53.194;6.132;2024-03-07T14:39:02;7.80;99.90
76567;DHT22;65428;53.194;6.132;2024-03-07T14:41:45;7.80;99.90
76567;DHT22;65428;53.194;6.132;2024-03-07T14:44:16;7.70;99.90
76567;DHT22;65428;53.194;6.132;2024-03-07T14:46:42;7.70;99.90
76567;DHT22;65428;53.194;6.132;2024-03-07T14:49:14;7.60;99.90
76567;DHT22;65428;53.194;6.132;2024-03-07T14:51:41;7.60;99.90
76567;DHT22;65428;53.194;6.132;2024-03-07T14:54:08;7.50;99.90
76567;DHT22;65428;53.194;6.132;2024-03-07T14:56:34;7.50;99.90
76567;DHT22;65428;53.194;6.132;2024-03-07T14:59:00;7.50;99.90
76567;DHT22;65428;53.194;6.132;2024-03-07T15:01:28;7.40;99.90
76567;DHT22;65428;53.194;6.132;2024-03-07T15:03:57;7.50;99.90
76567;DHT22;65428;53.194;6.132;2024-03-07T15:06:23;7.50;99.90
76567;DHT22;65428;53.194;6.132;2024-03-07T15:08:49;7.80;99.90
76567;DHT22;65428;53.194;6.132;2024-03-07T15:11:40;7.50;99.90
76567;DHT22;65428;53.194;6.132;2024-03-07T15:14:09;7.40;99.90
76567;DHT22;65428;53.194;6.132;2024-03-07T15:16:35;7.40;99.90
76567;DHT22;65428;53.194;6.132;2024-03-07T15:19:09;7.40;99.90
76567;DHT22;65428;53.194;6.132;2024-03-07T15:21:38;7.50;99.90
76567;DHT22;65428;53.194;6.132;2024-03-07T15:24:06;7.40;99.90
76567;DHT22;65428;53.194;6.132;2024-03-07T15:26:32;7.40;99.90
76567;DHT22;65428;53.194;6.132;2024-03-07T15:28:58;7.50;99.90
76567;DHT22;65428;53.194;6.132;2024-03-07T15:31:26;7.50;99.90
76567;DHT22;65428;53.194;6.132;2024-03-07T15:33:52;7.50;99.90
76567;DHT22;65428;53.194;6.132;2024-03-07T15:36:18;7.70;99.90
76567;DHT22;65428;53.194;6.132;2024-03-07T15:38:45;7.50;99.90
76567;DHT22;65428;53.194;6.132;2024-03-07T15:41:15;7.60;99.90
76567;DHT22;65428;53.194;6.132;2024-03-07T15:43:41;7.80;99.90
76567;DHT22;65428;53.194;6.132;2024-03-07T15:46:14;7.60;99.90
76567;DHT22;65428;53.194;6.132;2024-03-07T15:48:46;7.90;99.90
76567;DHT22;65428;53.194;6.132;2024-03-07T15:51:15;7.60;99.90
76567;DHT22;65428;53.194;6.132;2024-03-07T15:53:41;7.80;99.90
76567;DHT22;65428;53.194;6.132;2024-03-07T15:56:07;7.60;99.90
76567;DHT22;65428;53.194;6.132;2024-03-07T15:58:33;7.70;99.90
76567;DHT22;65428;53.194;6.132;2024-03-07T16:00:59;7.50;99.90
76567;DHT22;65428;53.194;6.132;2024-03-07T16:03:26;7.50;99.90
76567;DHT22;65428;53.194;6.132;2024-03-07T16:05:51;7.50;99.90
76567;DHT22;65428;53.194;6.132;2024-03-07T16:08:17;7.50;99.90
76567;DHT22;65428;53.194;6.132;2024-03-07T16:10:43;7.80;99.90
76567;DHT22;65428;53.194;6.132;2024-03-07T16:13:12;7.80;99.90
76567;DHT22;65428;53.194;6.132;2024-03-07T16:15:41;7.50;99.90
76567;DHT22;65428;53.194;6.132;2024-03-07T16:18:07;7.50;99.90
76567;DHT22;65428;53.194;6.132;2024-03-07T16:20:35;7.30;99.90
76567;DHT22;65428;53.194;6.132;2024-03-07T16:23:01;7.40;99.90
76567;DHT22;65428;53.194;6.132;2024-03-07T16:25:31;7.90;99.90
76567;DHT22;65428;53.194;6.132;2024-03-07T16:27:59;7.40;99.90
76567;DHT22;65428;53.194;6.132;2024-03-07T16:30:26;7.30;99.90
76567;DHT22;65428;53.194;6.132;2024-03-07T16:32:53;7.60;99.90
76567;DHT22;65428;53.194;6.132;2024-03-07T16:35:29;7.40;99.90
76567;DHT22;65428;53.194;6.132;2024-03-07T16:37:58;7.20;99.90